createdAt,value
2018-09-20T00:02:01.313Z,5.33
2018-09-20T00:04:29.882Z,4.83
2018-09-20T00:06:58.477Z,5.00
2018-09-20T00:09:27.035Z,4.80
2018-09-20T00:11:55.571Z,4.93
2018-09-20T00:14:24.014Z,5.47
2018-09-20T00:16:52.524Z,5.80
2018-09-20T00:19:21.579Z,5.10
2018-09-20T00:21:50.121Z,5.20
2018-09-20T00:24:18.631Z,5.10
2018-09-20T00:26:47.763Z,4.73
2018-09-20T00:29:16.999Z,4.90
2018-09-20T00:31:45.635Z,5.27
2018-09-20T00:34:14.023Z,5.37
2018-09-20T00:36:42.413Z,4.57
2018-09-20T00:39:13.313Z,5.00
2018-09-20T00:41:41.801Z,5.23
2018-09-20T00:44:11.248Z,5.37
2018-09-20T00:46:39.873Z,5.43
2018-09-20T00:49:08.271Z,4.80
2018-09-20T00:51:36.750Z,5.13
2018-09-20T00:54:05.201Z,5.43
2018-09-20T00:56:33.647Z,5.00
2018-09-20T00:59:02.220Z,5.30
2018-09-20T01:01:30.669Z,5.13
2018-09-20T01:03:59.184Z,5.60
2018-09-20T01:06:27.740Z,4.93
2018-09-20T01:08:56.194Z,5.33
2018-09-20T01:11:24.672Z,4.67
2018-09-20T01:13:53.180Z,5.47
2018-09-20T01:16:21.796Z,5.10
2018-09-20T01:18:50.197Z,4.97
2018-09-20T01:21:19.020Z,4.90
2018-09-20T01:23:47.483Z,4.63
2018-09-20T01:26:15.907Z,5.30
2018-09-20T01:28:44.494Z,5.47
2018-09-20T01:31:13.030Z,4.83
2018-09-20T01:33:41.425Z,5.30
2018-09-20T01:36:09.896Z,5.40
2018-09-20T01:38:38.380Z,5.10
2018-09-20T01:41:06.943Z,5.50
2018-09-20T01:43:35.397Z,5.67
2018-09-20T01:46:04.548Z,5.00
2018-09-20T01:48:32.988Z,5.80
2018-09-20T01:51:01.487Z,5.30
2018-09-20T01:53:29.937Z,5.33
2018-09-20T01:55:58.500Z,5.40
2018-09-20T01:58:27.213Z,5.33
2018-09-20T02:00:55.627Z,5.40
2018-09-20T02:03:24.672Z,5.53
2018-09-20T02:05:53.166Z,5.57
2018-09-20T02:08:21.622Z,5.90
2018-09-20T02:10:50.382Z,5.37
2018-09-20T02:13:18.835Z,6.03
2018-09-20T02:15:47.227Z,5.17
2018-09-20T02:18:15.773Z,6.07
2018-09-20T02:20:44.273Z,4.93
2018-09-20T02:23:12.756Z,5.47
2018-09-20T02:25:41.299Z,5.50
2018-09-20T02:28:10.388Z,5.73
2018-09-20T02:30:38.910Z,5.60
2018-09-20T02:33:07.371Z,5.77
2018-09-20T02:35:35.891Z,5.10
2018-09-20T02:38:04.364Z,5.23
2018-09-20T02:40:32.873Z,5.40
2018-09-20T02:43:01.298Z,4.77
2018-09-20T02:45:29.773Z,5.47
2018-09-20T02:47:58.497Z,5.30
2018-09-20T02:50:27.005Z,5.03
2018-09-20T02:52:55.440Z,5.23
2018-09-20T02:55:23.922Z,4.70
2018-09-20T02:57:52.485Z,5.27
2018-09-20T03:00:20.952Z,4.77
2018-09-20T03:02:49.468Z,5.37
2018-09-20T03:05:17.975Z,5.23
2018-09-20T03:07:46.596Z,4.77
2018-09-20T03:10:15.069Z,4.77
2018-09-20T03:12:43.566Z,4.90
2018-09-20T03:15:12.086Z,5.10
2018-09-20T03:17:41.395Z,5.13
2018-09-20T03:20:10.966Z,4.90
2018-09-20T03:22:40.237Z,4.57
2018-09-20T03:25:08.677Z,5.17
2018-09-20T03:27:37.151Z,4.90
2018-09-20T03:30:05.722Z,4.80
2018-09-20T03:32:34.172Z,5.60
2018-09-20T03:35:02.700Z,4.90
2018-09-20T03:37:31.183Z,5.87
2018-09-20T03:39:59.612Z,4.90
2018-09-20T03:42:28.091Z,4.70
2018-09-20T03:44:56.975Z,5.27
2018-09-20T03:47:26.395Z,4.67
2018-09-20T03:49:55.330Z,4.20
2018-09-20T03:52:23.763Z,4.90
2018-09-20T03:54:52.307Z,5.70
2018-09-20T03:57:21.189Z,5.07
2018-09-20T03:59:49.640Z,4.83
2018-09-20T04:02:18.040Z,4.97
2018-09-20T04:04:46.920Z,5.13
2018-09-20T04:07:15.669Z,4.97
2018-09-20T04:09:44.157Z,4.87
2018-09-20T04:12:12.671Z,5.63
2018-09-20T04:14:41.263Z,5.20
2018-09-20T04:17:09.783Z,4.77
2018-09-20T04:19:38.990Z,5.00
2018-09-20T04:22:07.362Z,4.40
2018-09-20T04:24:35.860Z,5.97
2018-09-20T04:27:04.376Z,4.73
2018-09-20T04:29:33.001Z,4.90
2018-09-20T04:32:01.509Z,4.80
2018-09-20T04:34:29.940Z,5.30
2018-09-20T04:36:58.419Z,5.63
2018-09-20T04:39:26.978Z,5.17
2018-09-20T04:41:55.381Z,5.13
2018-09-20T04:44:23.823Z,5.13
2018-09-20T04:46:52.567Z,5.70
2018-09-20T04:49:21.037Z,5.27
2018-09-20T04:51:49.576Z,5.50
2018-09-20T04:54:18.056Z,5.10
2018-09-20T04:56:46.626Z,5.23
2018-09-20T04:59:15.471Z,5.17
2018-09-20T05:01:44.144Z,5.20
2018-09-20T05:04:13.380Z,5.23
2018-09-20T05:06:42.098Z,4.83
2018-09-20T05:09:12.907Z,5.13
2018-09-20T05:11:41.861Z,5.07
2018-09-20T05:14:10.661Z,5.47
2018-09-20T05:16:39.335Z,5.10
2018-09-20T05:19:07.983Z,5.33
2018-09-20T05:21:36.516Z,5.33
2018-09-20T05:24:05.455Z,5.30
2018-09-20T05:26:33.898Z,4.73
2018-09-20T05:29:02.374Z,5.00
2018-09-20T05:31:30.788Z,5.07
2018-09-20T05:33:59.243Z,4.70
2018-09-20T05:36:27.682Z,5.17
2018-09-20T05:38:56.370Z,5.27
2018-09-20T05:41:25.033Z,5.07
2018-09-20T05:43:53.655Z,5.50
2018-09-20T05:46:22.197Z,5.53
2018-09-20T05:48:50.581Z,5.60
2018-09-20T05:51:19.010Z,5.30
2018-09-20T05:53:47.651Z,5.43
2018-09-20T05:56:16.119Z,5.33
2018-09-20T05:58:44.670Z,5.47
2018-09-20T06:01:13.148Z,5.33
2018-09-20T06:03:41.575Z,5.03
2018-09-20T06:06:10.025Z,5.53
2018-09-20T06:08:38.495Z,4.93
2018-09-20T06:11:06.997Z,5.33
2018-09-20T06:13:35.537Z,5.20
2018-09-20T06:16:03.987Z,5.73
2018-09-20T06:18:32.361Z,5.23
2018-09-20T06:21:00.898Z,5.40
2018-09-20T06:23:29.284Z,6.10
2018-09-20T06:25:58.205Z,5.50
2018-09-20T06:28:26.654Z,5.27
2018-09-20T06:30:55.135Z,5.53
2018-09-20T06:33:23.830Z,5.83
2018-09-20T06:35:52.292Z,5.87
2018-09-20T06:38:20.740Z,5.23
2018-09-20T06:40:49.247Z,5.50
2018-09-20T06:43:17.720Z,5.57
2018-09-20T06:45:46.287Z,5.33
2018-09-20T06:48:14.806Z,4.93
2018-09-20T06:50:43.251Z,5.47
2018-09-20T06:53:11.714Z,5.17
2018-09-20T06:55:40.164Z,4.67
2018-09-20T06:58:08.743Z,5.63
2018-09-20T07:00:37.199Z,4.77
2018-09-20T07:03:05.767Z,5.17
2018-09-20T07:05:34.163Z,4.67
2018-09-20T07:08:02.735Z,5.40
2018-09-20T07:10:31.128Z,4.53
2018-09-20T07:12:59.540Z,5.40
2018-09-20T07:15:27.925Z,5.07
2018-09-20T07:17:56.421Z,4.67
2018-09-20T07:20:24.890Z,5.17
2018-09-20T07:22:53.290Z,4.83
2018-09-20T07:25:22.020Z,4.83
2018-09-20T07:27:50.219Z,5.30
2018-09-20T07:30:18.748Z,5.00
2018-09-20T07:32:47.192Z,4.57
2018-09-20T07:35:15.661Z,4.60
2018-09-20T07:37:44.071Z,5.40
2018-09-20T07:40:12.460Z,5.10
2018-09-20T07:42:40.913Z,4.97
2018-09-20T07:45:10.718Z,4.97
2018-09-20T07:47:39.340Z,4.63
2018-09-20T07:50:07.854Z,4.80
2018-09-20T07:52:36.243Z,5.77
2018-09-20T07:55:04.741Z,4.33
2018-09-20T07:57:33.298Z,4.57
2018-09-20T08:00:02.976Z,5.33
2018-09-20T08:02:31.574Z,5.13
2018-09-20T08:04:59.961Z,4.70
2018-09-20T08:07:28.453Z,4.13
2018-09-20T08:09:56.907Z,4.90
2018-09-20T08:12:25.434Z,4.70
2018-09-20T08:14:54.404Z,4.27
2018-09-20T08:17:22.920Z,4.47
2018-09-20T08:19:51.379Z,4.23
2018-09-20T08:22:19.860Z,4.67
2018-09-20T08:24:48.283Z,4.17
2018-09-20T08:27:16.699Z,4.97
2018-09-20T08:29:45.309Z,4.27
2018-09-20T08:32:13.750Z,4.57
2018-09-20T08:34:42.171Z,4.57
2018-09-20T08:37:10.548Z,4.80
2018-09-20T08:39:38.930Z,4.87
2018-09-20T08:42:07.692Z,4.40
2018-09-20T08:44:36.095Z,4.47
2018-09-20T08:47:04.680Z,4.20
2018-09-20T08:49:33.214Z,5.23
2018-09-20T08:52:02.472Z,4.87
2018-09-20T08:54:31.050Z,5.43
2018-09-20T08:56:59.626Z,5.97
2018-09-20T08:59:28.000Z,4.60
2018-09-20T09:01:56.419Z,4.97
2018-09-20T09:04:24.813Z,4.40
2018-09-20T09:06:53.301Z,5.80
2018-09-20T09:09:21.713Z,5.53
2018-09-20T09:11:50.181Z,5.97
2018-09-20T09:14:18.640Z,5.60
2018-09-20T09:16:47.088Z,6.63
2018-09-20T09:19:15.494Z,5.87
2018-09-20T09:21:44.064Z,4.57
2018-09-20T09:24:12.785Z,4.93
2018-09-20T09:26:41.208Z,4.70
2018-09-20T09:29:09.677Z,4.60
2018-09-20T09:31:38.585Z,4.62
2018-09-20T09:34:07.048Z,5.20
2018-09-20T09:36:35.520Z,4.97
2018-09-20T09:39:05.524Z,4.60
2018-09-20T09:41:33.979Z,4.87
2018-09-20T09:44:02.505Z,4.60
2018-09-20T09:46:30.991Z,4.30
2018-09-20T09:48:59.719Z,4.37
2018-09-20T09:51:28.960Z,4.40
2018-09-20T09:53:57.594Z,4.95
2018-09-20T09:56:25.937Z,4.55
2018-09-20T09:58:54.323Z,4.50
2018-09-20T10:01:22.842Z,5.15
2018-09-20T10:03:51.252Z,5.08
2018-09-20T10:06:20.896Z,4.75
2018-09-20T10:08:49.287Z,4.75
2018-09-20T10:11:17.706Z,4.35
2018-09-20T10:13:46.623Z,4.47
2018-09-20T10:16:15.127Z,4.95
2018-09-20T10:18:43.528Z,4.50
2018-09-20T10:21:11.960Z,4.67
2018-09-20T10:23:40.360Z,4.87
2018-09-20T10:26:08.763Z,4.85
2018-09-20T10:28:37.104Z,4.90
2018-09-20T10:31:05.535Z,5.10
2018-09-20T10:33:34.036Z,4.75
2018-09-20T10:36:02.688Z,4.45
2018-09-20T10:38:31.168Z,4.78
2018-09-20T10:40:59.628Z,4.20
2018-09-20T10:43:28.034Z,4.62
2018-09-20T10:45:56.432Z,5.08
2018-09-20T10:48:25.655Z,4.65
2018-09-20T10:50:54.068Z,4.58
2018-09-20T10:53:22.482Z,4.70
2018-09-20T10:55:50.960Z,4.87
2018-09-20T10:58:19.443Z,4.30
2018-09-20T11:00:47.888Z,4.50
2018-09-20T11:03:16.301Z,5.37
2018-09-20T11:05:44.704Z,4.97
2018-09-20T11:08:13.109Z,4.83
2018-09-20T11:10:41.617Z,4.87
2018-09-20T11:13:10.116Z,5.30
2018-09-20T11:15:38.629Z,4.78
2018-09-20T11:18:06.996Z,4.75
2018-09-20T11:20:35.420Z,4.67
2018-09-20T11:23:03.837Z,4.65
2018-09-20T11:25:32.193Z,4.62
2018-09-20T11:28:00.599Z,4.70
2018-09-20T11:30:29.117Z,5.12
2018-09-20T11:32:57.526Z,5.17
2018-09-20T11:35:26.047Z,4.53
2018-09-20T11:37:54.464Z,4.35
2018-09-20T11:40:22.977Z,4.20
2018-09-20T11:42:51.461Z,4.80
2018-09-20T11:45:19.892Z,4.58
2018-09-20T11:47:48.444Z,4.85
2018-09-20T11:50:17.176Z,4.42
2018-09-20T11:52:45.581Z,4.62
2018-09-20T11:55:14.029Z,4.72
2018-09-20T11:57:43.487Z,4.40
2018-09-20T12:00:12.466Z,4.85
2018-09-20T12:02:40.905Z,4.42
2018-09-20T12:05:09.446Z,4.80
2018-09-20T12:07:38.448Z,5.22
2018-09-20T12:10:06.968Z,4.17
2018-09-20T12:12:35.379Z,4.78
2018-09-20T12:15:03.836Z,5.12
2018-09-20T12:17:32.485Z,4.67
2018-09-20T12:20:01.011Z,4.78
2018-09-20T12:22:29.765Z,4.30
2018-09-20T12:24:58.981Z,4.95
2018-09-20T12:27:27.844Z,4.35
2018-09-20T12:29:56.661Z,4.20
2018-09-20T12:32:25.166Z,4.17
2018-09-20T12:34:53.586Z,4.03
2018-09-20T12:37:26.198Z,3.98
2018-09-20T12:39:54.776Z,3.92
2018-09-20T12:42:23.235Z,4.50
2018-09-20T12:44:51.609Z,4.95
2018-09-20T12:47:20.128Z,4.70
2018-09-20T12:49:48.600Z,4.33
2018-09-20T12:52:16.950Z,4.50
2018-09-20T12:54:45.446Z,3.98
2018-09-20T12:57:13.967Z,4.10
2018-09-20T12:59:42.537Z,4.30
2018-09-20T13:02:11.000Z,4.42
2018-09-20T13:04:39.387Z,4.53
2018-09-20T13:07:07.865Z,4.60
2018-09-20T13:09:36.397Z,3.95
2018-09-20T13:12:04.885Z,4.22
2018-09-20T13:14:33.458Z,4.28
2018-09-20T13:17:01.899Z,4.58
2018-09-20T13:19:30.324Z,3.90
2018-09-20T13:21:58.800Z,4.85
2018-09-20T13:24:27.703Z,4.42
2018-09-20T13:26:56.346Z,3.80
2018-09-20T13:29:24.847Z,4.53
2018-09-20T13:31:53.545Z,4.25
2018-09-20T13:34:22.870Z,4.28
2018-09-20T13:36:51.991Z,4.53
2018-09-20T13:39:20.820Z,3.83
2018-09-20T13:41:50.036Z,4.58
2018-09-20T13:44:18.511Z,4.12
2018-09-20T13:46:46.920Z,4.20
2018-09-20T13:52:15.561Z,4.45
2018-09-20T13:54:46.341Z,4.12
2018-09-20T13:57:15.228Z,4.60
2018-09-20T13:59:43.829Z,3.98
2018-09-20T14:02:13.216Z,4.35
2018-09-20T14:04:42.504Z,4.00
2018-09-20T14:07:11.239Z,3.62
2018-09-20T14:09:39.980Z,4.20
2018-09-20T14:12:09.082Z,4.60
2018-09-20T14:14:37.842Z,3.95
2018-09-20T14:17:07.957Z,4.08
2018-09-20T14:19:36.512Z,4.10
2018-09-20T14:22:04.986Z,4.25
2018-09-20T14:24:33.634Z,4.78
2018-09-20T14:27:03.566Z,6.10
2018-09-20T14:29:32.170Z,4.87
2018-09-20T14:32:00.736Z,3.90
2018-09-20T14:34:29.428Z,4.33
2018-09-20T14:36:58.001Z,3.35
2018-09-20T14:39:27.315Z,4.35
2018-09-20T14:41:55.934Z,4.45
2018-09-20T14:44:24.651Z,4.12
2018-09-20T14:46:53.202Z,7.65
2018-09-20T14:49:21.978Z,6.35
2018-09-20T14:51:50.678Z,4.30
2018-09-20T14:54:19.672Z,4.58
2018-09-20T14:56:48.660Z,5.42
2018-09-20T14:59:17.403Z,6.03
2018-09-20T15:01:46.045Z,5.00
2018-09-20T15:04:14.569Z,7.75
2018-09-20T15:06:43.447Z,5.40
2018-09-20T15:09:13.487Z,6.85
2018-09-20T15:11:42.322Z,5.53
2018-09-20T15:14:10.919Z,4.92
2018-09-20T15:16:39.414Z,5.12
2018-09-20T15:19:08.289Z,3.70
2018-09-20T15:21:44.203Z,4.08
2018-09-20T15:24:12.692Z,4.40
2018-09-20T15:26:41.198Z,4.50
2018-09-20T15:29:09.706Z,3.98
2018-09-20T15:31:38.287Z,3.67
2018-09-20T15:34:07.068Z,4.17
2018-09-20T15:36:35.964Z,4.47
2018-09-20T15:39:07.189Z,4.22
2018-09-20T15:41:35.807Z,3.55
2018-09-20T15:44:04.636Z,4.10
2018-09-20T15:46:33.529Z,3.35
2018-09-20T15:49:02.695Z,3.30
2018-09-20T15:51:32.025Z,4.78
2018-09-20T15:54:00.526Z,3.65
2018-09-20T15:56:29.548Z,3.60
2018-09-20T15:58:58.287Z,3.27
2018-09-20T16:01:27.722Z,3.62
2018-09-20T16:03:56.363Z,3.62
2018-09-20T16:06:25.052Z,3.70
2018-09-20T16:08:53.548Z,3.87
2018-09-20T16:11:22.460Z,3.67
2018-09-20T16:13:51.734Z,3.60
2018-09-20T16:16:20.296Z,3.58
2018-09-20T16:18:49.432Z,4.00
2018-09-20T16:21:18.680Z,4.17
2018-09-20T16:23:47.533Z,3.98
2018-09-20T16:26:16.288Z,4.08
2018-09-20T16:29:33.959Z,4.42
2018-09-20T16:34:19.888Z,3.75
2018-09-20T16:37:01.690Z,4.40
2018-09-20T16:39:33.890Z,5.03
2018-09-20T16:42:04.304Z,4.15
2018-09-20T16:44:32.706Z,3.77
2018-09-20T16:47:02.184Z,4.20
2018-09-20T16:49:34.404Z,3.85
2018-09-20T16:52:03.570Z,4.28
2018-09-20T16:54:33.139Z,4.17
2018-09-20T16:57:01.646Z,3.90
2018-09-20T16:59:30.570Z,4.83
2018-09-20T17:01:59.859Z,4.35
2018-09-20T17:04:29.330Z,3.45
2018-09-20T17:06:58.452Z,4.08
2018-09-20T17:09:27.744Z,3.77
2018-09-20T17:11:56.512Z,3.95
2018-09-20T17:14:33.806Z,4.17
2018-09-20T17:17:02.141Z,4.03
2018-09-20T17:19:31.084Z,4.45
2018-09-20T17:22:00.328Z,4.25
2018-09-20T17:24:31.227Z,5.35
2018-09-20T17:27:00.602Z,4.80
2018-09-20T17:29:29.807Z,4.60
2018-09-20T17:32:01.052Z,5.45
2018-09-20T17:34:41.922Z,4.23
2018-09-20T17:37:12.819Z,4.80
2018-09-20T17:39:44.518Z,4.77
2018-09-20T17:42:14.723Z,5.03
2018-09-20T17:44:44.110Z,5.00
2018-09-20T17:47:13.803Z,5.10
2018-09-20T17:50:19.789Z,4.40
2018-09-20T17:52:59.617Z,5.10
2018-09-20T17:55:29.526Z,4.43
2018-09-20T17:58:00.055Z,5.57
2018-09-20T18:00:28.861Z,4.70
2018-09-20T18:02:58.386Z,4.40
2018-09-20T18:05:27.552Z,4.93
2018-09-20T18:07:56.152Z,4.50
2018-09-20T18:10:24.707Z,4.40
2018-09-20T18:12:53.395Z,4.57
2018-09-20T18:15:22.097Z,4.17
2018-09-20T18:17:50.990Z,4.27
2018-09-20T18:20:20.105Z,4.03
2018-09-20T18:22:49.476Z,4.00
2018-09-20T18:25:18.439Z,3.90
2018-09-20T18:27:47.232Z,4.37
2018-09-20T18:30:16.121Z,4.23
2018-09-20T18:32:45.142Z,3.43
2018-09-20T18:35:14.115Z,3.63
2018-09-20T18:37:43.332Z,3.60
2018-09-20T18:40:12.167Z,4.20
2018-09-20T18:42:41.569Z,3.90
2018-09-20T18:45:09.046Z,4.27
2018-09-20T18:47:37.791Z,4.00
2018-09-20T18:50:06.371Z,3.60
2018-09-20T18:52:34.846Z,3.90
2018-09-20T18:55:03.365Z,3.80
2018-09-20T18:57:31.765Z,4.53
2018-09-20T19:00:00.552Z,3.93
2018-09-20T19:02:29.043Z,4.00
2018-09-20T19:04:57.531Z,3.80
2018-09-20T19:07:26.781Z,3.10
2018-09-20T19:09:55.888Z,4.23
2018-09-20T19:12:24.335Z,4.37
2018-09-20T19:14:52.873Z,4.30
2018-09-20T19:17:21.539Z,4.73
2018-09-20T19:19:49.948Z,5.23
2018-09-20T19:22:18.424Z,4.77
2018-09-20T19:24:46.884Z,4.33
2018-09-20T19:27:15.709Z,4.53
2018-09-20T19:29:45.105Z,3.23
2018-09-20T19:32:13.512Z,3.97
2018-09-20T19:34:44.265Z,4.37
2018-09-20T19:37:12.969Z,3.97
2018-09-20T19:39:41.365Z,4.20
2018-09-20T19:42:09.883Z,4.90
2018-09-20T19:44:38.329Z,4.27
2018-09-20T19:47:06.847Z,4.40
2018-09-20T19:49:35.284Z,4.67
2018-09-20T19:52:03.997Z,4.47
2018-09-20T19:54:32.554Z,3.97
2018-09-20T19:57:01.036Z,4.17
2018-09-20T19:59:29.605Z,4.40
2018-09-20T20:01:58.180Z,4.03
2018-09-20T20:04:26.649Z,3.57
2018-09-20T20:06:55.149Z,3.90
2018-09-20T20:09:23.606Z,3.60
2018-09-20T20:11:52.065Z,4.37
2018-09-20T20:14:20.581Z,3.70
2018-09-20T20:16:49.111Z,3.90
2018-09-20T20:19:17.665Z,4.37
2018-09-20T20:21:46.264Z,4.07
2018-09-20T20:24:14.780Z,4.20
2018-09-20T20:26:43.296Z,4.63
2018-09-20T20:29:11.933Z,3.93
2018-09-20T20:31:40.430Z,3.90
2018-09-20T20:34:08.927Z,4.03
2018-09-20T20:36:37.377Z,3.67
2018-09-20T20:39:08.116Z,4.67
2018-09-20T20:41:36.676Z,5.10
2018-09-20T20:44:05.125Z,4.20
2018-09-20T20:46:33.607Z,4.30
2018-09-20T20:49:02.107Z,4.63
2018-09-20T20:51:31.188Z,3.80
2018-09-20T20:54:00.704Z,3.57
2018-09-20T20:56:29.249Z,4.40
2018-09-20T20:58:57.873Z,4.03
2018-09-20T21:01:27.590Z,3.97
2018-09-20T21:03:56.808Z,4.07
2018-09-20T21:06:25.427Z,4.27
2018-09-20T21:08:53.943Z,4.13
2018-09-20T21:11:22.465Z,3.77
2018-09-20T21:13:51.043Z,3.97
2018-09-20T21:16:19.503Z,4.00
2018-09-20T21:18:48.014Z,3.93
2018-09-20T21:21:16.900Z,3.77
2018-09-20T21:23:45.344Z,4.50
2018-09-20T21:26:13.932Z,4.00
2018-09-20T21:28:42.742Z,3.93
2018-09-20T21:31:11.354Z,4.30
2018-09-20T21:33:39.834Z,4.00
2018-09-20T21:36:08.376Z,3.90
2018-09-20T21:38:36.932Z,4.03
2018-09-20T21:41:05.557Z,4.07
2018-09-20T21:43:34.181Z,3.70
2018-09-20T21:46:02.627Z,3.60
2018-09-20T21:48:31.097Z,3.90
2018-09-20T21:50:59.719Z,3.90
2018-09-20T21:53:28.162Z,3.83
2018-09-20T21:55:56.707Z,4.00
2018-09-20T21:58:25.155Z,3.83
2018-09-20T22:00:59.243Z,3.80
2018-09-20T22:03:28.873Z,4.20
2018-09-20T22:05:57.591Z,4.50
2018-09-20T22:08:26.143Z,4.10
2018-09-20T22:10:54.698Z,4.20
2018-09-20T22:13:23.654Z,3.97
2018-09-20T22:15:52.161Z,4.10
2018-09-20T22:18:20.729Z,4.40
2018-09-20T22:20:49.676Z,4.20
2018-09-20T22:23:18.219Z,4.33
2018-09-20T22:25:46.644Z,3.97
2018-09-20T22:28:15.188Z,4.17
2018-09-20T22:30:44.029Z,4.03
2018-09-20T22:33:12.432Z,4.17
2018-09-20T22:35:40.946Z,3.70
2018-09-20T22:38:10.284Z,4.20
2018-09-20T22:40:39.318Z,4.00
2018-09-20T22:43:08.649Z,4.23
2018-09-20T22:45:37.076Z,4.40
2018-09-20T22:48:05.692Z,4.13
2018-09-20T22:50:34.100Z,4.00
2018-09-20T22:53:02.560Z,4.00
2018-09-20T22:55:30.930Z,4.40
2018-09-20T22:57:59.512Z,4.03
2018-09-20T23:00:28.655Z,4.50
2018-09-20T23:02:57.190Z,4.30
2018-09-20T23:05:25.673Z,4.43
2018-09-20T23:07:54.345Z,3.43
2018-09-20T23:10:22.922Z,4.33
2018-09-20T23:12:51.360Z,4.03
2018-09-20T23:15:19.839Z,4.00
2018-09-20T23:17:48.543Z,4.20
2018-09-20T23:20:17.044Z,4.53
2018-09-20T23:22:45.541Z,3.67
2018-09-20T23:25:14.750Z,4.07
2018-09-20T23:27:43.301Z,4.50
2018-09-20T23:30:11.728Z,4.10
2018-09-20T23:32:40.939Z,4.00
2018-09-20T23:35:10.724Z,3.87
2018-09-20T23:37:40.212Z,3.93
2018-09-20T23:40:09.051Z,3.57
2018-09-20T23:42:37.452Z,3.47
2018-09-20T23:45:05.992Z,3.73
2018-09-20T23:47:35.388Z,4.17
2018-09-20T23:50:03.863Z,3.67
2018-09-20T23:52:32.998Z,4.33
2018-09-20T23:55:01.808Z,3.57
2018-09-20T23:57:30.248Z,3.57
2018-09-20T23:59:58.735Z,3.87
